createdAt,value
2018-08-07T00:01:58.607Z,24.90
2018-08-07T00:04:26.816Z,24.90
2018-08-07T00:06:55.132Z,24.80
2018-08-07T00:09:23.352Z,24.80
2018-08-07T00:11:51.489Z,24.70
2018-08-07T00:14:19.627Z,24.60
2018-08-07T00:16:47.834Z,24.60
2018-08-07T00:19:16.082Z,24.60
2018-08-07T00:21:44.439Z,24.60
2018-08-07T00:24:12.697Z,24.70
2018-08-07T00:26:40.925Z,24.70
2018-08-07T00:29:09.116Z,24.70
2018-08-07T00:31:37.362Z,24.60
2018-08-07T00:34:05.567Z,24.40
2018-08-07T00:36:33.745Z,24.40
2018-08-07T00:39:01.962Z,24.40
2018-08-07T00:41:30.376Z,24.40
2018-08-07T00:43:59.269Z,24.50
2018-08-07T00:46:27.633Z,24.50
2018-08-07T00:48:55.898Z,24.30
2018-08-07T00:51:24.624Z,24.30
2018-08-07T00:53:52.849Z,24.40
2018-08-07T00:56:21.126Z,24.40
2018-08-07T00:58:49.408Z,24.40
2018-08-07T01:01:17.700Z,24.30
2018-08-07T01:03:45.860Z,24.30
2018-08-07T01:06:14.054Z,24.20
2018-08-07T01:08:42.438Z,24.20
2018-08-07T01:11:10.691Z,24.10
2018-08-07T01:13:38.896Z,23.90
2018-08-07T01:16:07.272Z,23.90
2018-08-07T01:18:35.422Z,23.80
2018-08-07T01:21:03.620Z,23.80
2018-08-07T01:23:31.873Z,23.80
2018-08-07T01:26:00.164Z,23.80
2018-08-07T01:28:28.416Z,23.90
2018-08-07T01:30:56.946Z,23.80
2018-08-07T01:33:25.176Z,23.70
2018-08-07T01:35:53.356Z,23.70
2018-08-07T01:38:21.653Z,23.70
2018-08-07T01:40:49.887Z,23.60
2018-08-07T01:43:18.092Z,23.60
2018-08-07T01:45:46.360Z,23.50
2018-08-07T01:48:14.532Z,23.50
2018-08-07T01:50:42.729Z,23.50
2018-08-07T01:53:11.011Z,23.40
2018-08-07T01:55:39.217Z,23.30
2018-08-07T01:58:07.440Z,23.30
2018-08-07T02:00:35.717Z,23.30
2018-08-07T02:03:03.981Z,23.20
2018-08-07T02:05:32.190Z,23.10
2018-08-07T02:08:00.657Z,23.10
2018-08-07T02:10:28.944Z,23.10
2018-08-07T02:12:57.192Z,23.10
2018-08-07T02:15:25.442Z,23.20
2018-08-07T02:17:53.728Z,23.10
2018-08-07T02:20:21.960Z,23.10
2018-08-07T02:22:50.170Z,22.90
2018-08-07T02:25:19.513Z,22.90
2018-08-07T02:27:48.136Z,22.90
2018-08-07T02:30:16.896Z,22.90
2018-08-07T02:32:45.196Z,22.80
2018-08-07T02:35:14.749Z,22.80
2018-08-07T02:37:45.429Z,22.70
2018-08-07T02:40:14.185Z,22.70
2018-08-07T02:42:42.761Z,22.70
2018-08-07T02:45:14.129Z,22.70
2018-08-07T02:47:43.139Z,22.70
2018-08-07T02:50:13.201Z,22.70
2018-08-07T02:52:41.389Z,22.70
2018-08-07T02:55:10.690Z,22.70
2018-08-07T02:57:40.212Z,22.70
2018-08-07T03:00:13.193Z,22.80
2018-08-07T03:02:41.388Z,22.80
2018-08-07T03:05:10.571Z,22.80
2018-08-07T03:07:38.941Z,22.80
2018-08-07T03:10:08.225Z,22.80
2018-08-07T03:12:36.697Z,22.80
2018-08-07T03:15:07.728Z,22.90
2018-08-07T03:17:35.958Z,22.90
2018-08-07T03:22:32.691Z,22.90
2018-08-07T03:25:00.997Z,22.80
2018-08-07T03:27:29.208Z,22.80
2018-08-07T03:29:58.061Z,22.80
2018-08-07T03:32:26.276Z,22.80
2018-08-07T03:34:54.497Z,22.80
2018-08-07T03:39:50.757Z,22.70
2018-08-07T03:42:18.959Z,22.70
2018-08-07T03:44:47.167Z,22.70
2018-08-07T03:47:15.363Z,22.70
2018-08-07T03:49:43.616Z,22.70
2018-08-07T03:52:11.887Z,22.70
2018-08-07T03:54:40.076Z,22.70
2018-08-07T03:57:08.374Z,22.70
2018-08-07T03:59:36.592Z,22.70
2018-08-07T04:02:04.853Z,22.60
2018-08-07T04:04:33.069Z,22.60
2018-08-07T04:07:01.293Z,22.40
2018-08-07T04:09:29.513Z,22.40
2018-08-07T04:11:57.714Z,22.40
2018-08-07T04:14:26.057Z,22.30
2018-08-07T04:16:55.604Z,22.30
2018-08-07T04:19:27.472Z,22.30
2018-08-07T04:21:57.020Z,22.30
2018-08-07T04:24:26.224Z,22.30
2018-08-07T04:26:54.440Z,22.30
2018-08-07T04:29:22.651Z,22.30
2018-08-07T04:31:50.928Z,22.20
2018-08-07T04:34:19.161Z,22.20
2018-08-07T04:36:47.397Z,22.20
2018-08-07T04:39:15.679Z,22.20
2018-08-07T04:41:43.980Z,22.20
2018-08-07T04:44:12.217Z,22.10
2018-08-07T04:46:40.528Z,22.10
2018-08-07T04:49:08.729Z,22.10
2018-08-07T04:51:37.269Z,22.10
2018-08-07T04:54:06.412Z,22.00
2018-08-07T04:56:34.636Z,22.00
2018-08-07T04:59:02.833Z,22.10
2018-08-07T05:01:31.059Z,22.10
2018-08-07T05:03:59.390Z,22.20
2018-08-07T05:06:27.611Z,22.30
2018-08-07T05:08:55.845Z,22.30
2018-08-07T05:13:51.966Z,22.30
2018-08-07T05:16:20.140Z,22.30
2018-08-07T05:18:48.371Z,22.30
2018-08-07T05:21:16.593Z,22.30
2018-08-07T05:23:44.806Z,22.30
2018-08-07T05:26:12.972Z,22.40
2018-08-07T05:28:41.230Z,22.50
2018-08-07T05:31:09.456Z,22.60
2018-08-07T05:33:37.681Z,22.60
2018-08-07T05:36:05.825Z,22.60
2018-08-07T05:38:34.060Z,22.80
2018-08-07T05:41:02.352Z,22.80
2018-08-07T05:43:30.633Z,22.80
2018-08-07T05:45:58.948Z,23.00
2018-08-07T05:48:27.300Z,23.00
2018-08-07T05:50:56.135Z,23.10
2018-08-07T05:53:23.956Z,23.20
2018-08-07T05:55:52.190Z,23.30
2018-08-07T05:58:20.450Z,23.30
2018-08-07T06:00:48.639Z,23.40
2018-08-07T06:03:16.851Z,23.50
2018-08-07T06:05:45.135Z,23.60
2018-08-07T06:08:13.669Z,23.60
2018-08-07T06:10:41.887Z,23.60
2018-08-07T06:13:10.342Z,23.70
2018-08-07T06:15:38.555Z,23.70
2018-08-07T06:18:06.794Z,23.70
2018-08-07T06:20:34.969Z,23.70
2018-08-07T06:23:03.251Z,23.80
2018-08-07T06:25:31.503Z,23.80
2018-08-07T06:27:59.723Z,23.80
2018-08-07T06:30:28.256Z,23.90
2018-08-07T06:32:56.549Z,23.90
2018-08-07T06:35:24.909Z,23.90
2018-08-07T06:37:53.328Z,24.00
2018-08-07T06:40:21.671Z,24.00
2018-08-07T06:42:49.851Z,24.00
2018-08-07T06:45:18.648Z,24.10
2018-08-07T06:47:47.135Z,24.10
2018-08-07T06:52:45.575Z,24.10
2018-08-07T06:55:13.802Z,24.10
2018-08-07T06:57:42.105Z,24.20
2018-08-07T07:00:17.344Z,24.20
2018-08-07T07:02:45.659Z,24.20
2018-08-07T07:05:13.832Z,24.30
2018-08-07T07:07:42.112Z,24.40
2018-08-07T07:10:11.845Z,24.60
2018-08-07T07:12:40.177Z,24.50
2018-08-07T07:15:10.490Z,24.60
2018-08-07T07:20:09.709Z,24.80
2018-08-07T07:22:37.880Z,24.80
2018-08-07T07:25:07.155Z,24.80
2018-08-07T07:27:35.369Z,24.90
2018-08-07T07:32:34.420Z,24.90
2018-08-07T07:35:02.625Z,25.00
2018-08-07T07:37:31.481Z,25.10
2018-08-07T07:39:59.818Z,25.10
2018-08-07T07:42:28.293Z,25.10
2018-08-07T07:44:56.596Z,25.10
2018-08-07T07:47:24.881Z,25.20
2018-08-07T07:49:53.931Z,25.20
2018-08-07T07:52:22.145Z,25.30
2018-08-07T07:54:50.359Z,25.50
2018-08-07T07:57:18.543Z,25.60
2018-08-07T07:59:47.044Z,25.60
2018-08-07T08:02:15.216Z,25.70
2018-08-07T08:04:43.443Z,25.80
2018-08-07T08:07:11.676Z,26.00
2018-08-07T08:09:39.898Z,26.10
2018-08-07T08:12:08.343Z,26.20
2018-08-07T08:14:36.620Z,26.10
2018-08-07T08:17:05.161Z,26.20
2018-08-07T08:19:33.573Z,26.30
2018-08-07T08:22:01.819Z,26.40
2018-08-07T08:24:30.128Z,26.40
2018-08-07T08:26:58.370Z,26.50
2018-08-07T08:29:27.010Z,26.70
2018-08-07T08:31:55.039Z,26.60
2018-08-07T08:34:23.391Z,26.70
2018-08-07T08:36:51.593Z,26.70
2018-08-07T08:39:19.791Z,26.70
2018-08-07T08:41:48.065Z,26.70
2018-08-07T08:44:16.411Z,26.80
2018-08-07T08:46:44.683Z,26.80
2018-08-07T08:49:12.957Z,26.80
2018-08-07T08:51:41.233Z,26.80
2018-08-07T08:54:09.598Z,26.80
2018-08-07T08:56:37.924Z,26.90
2018-08-07T08:59:06.344Z,27.00
2018-08-07T09:01:34.717Z,27.10
2018-08-07T09:04:03.791Z,27.20
2018-08-07T09:06:32.004Z,27.30
2018-08-07T09:09:00.497Z,27.40
2018-08-07T09:11:28.965Z,27.40
2018-08-07T09:13:57.323Z,27.50
2018-08-07T09:16:25.637Z,27.60
2018-08-07T09:18:53.953Z,27.60
2018-08-07T09:21:22.325Z,27.70
2018-08-07T09:23:50.664Z,27.90
2018-08-07T09:26:18.835Z,28.00
2018-08-07T09:28:47.074Z,28.10
2018-08-07T09:31:15.224Z,28.10
2018-08-07T09:33:43.421Z,28.10
2018-08-07T09:38:39.589Z,28.10
2018-08-07T09:41:07.773Z,28.20
2018-08-07T09:46:03.999Z,28.30
2018-08-07T09:48:32.366Z,28.30
2018-08-07T09:51:00.653Z,28.40
2018-08-07T09:53:29.000Z,28.40
2018-08-07T09:55:57.206Z,28.50
2018-08-07T09:58:25.636Z,28.50
2018-08-07T10:00:59.152Z,28.70
2018-08-07T10:03:27.447Z,28.90
2018-08-07T10:05:55.809Z,29.00
2018-08-07T10:08:24.122Z,29.10
2018-08-07T10:10:52.416Z,29.10
2018-08-07T10:13:20.660Z,29.20
2018-08-07T10:15:48.887Z,29.10
2018-08-07T10:18:17.248Z,29.20
2018-08-07T10:20:45.585Z,29.30
2018-08-07T10:23:13.862Z,29.30
2018-08-07T10:25:42.248Z,29.40
2018-08-07T10:28:10.527Z,29.60
2018-08-07T10:30:38.764Z,29.60
2018-08-07T10:33:06.909Z,29.60
2018-08-07T10:35:35.189Z,29.70
2018-08-07T10:38:03.542Z,29.90
2018-08-07T10:40:32.017Z,29.90
2018-08-07T10:43:00.428Z,30.10
2018-08-07T10:45:28.688Z,30.00
2018-08-07T10:47:57.076Z,30.30
2018-08-07T10:50:29.562Z,30.40
2018-08-07T10:52:58.695Z,30.50
2018-08-07T10:55:27.186Z,30.50
2018-08-07T10:57:57.620Z,30.50
2018-08-07T11:00:29.072Z,30.60
2018-08-07T11:02:57.960Z,30.70
2018-08-07T11:05:27.084Z,30.70
2018-08-07T11:07:55.300Z,30.80
2018-08-07T11:10:23.627Z,30.90
2018-08-07T11:12:52.467Z,31.00
2018-08-07T11:15:23.840Z,31.30
2018-08-07T11:17:53.723Z,31.30
2018-08-07T11:20:21.916Z,31.50
2018-08-07T11:22:51.158Z,31.70
2018-08-07T11:25:20.620Z,31.40
2018-08-07T11:27:48.820Z,31.40
2018-08-07T11:30:19.597Z,31.50
2018-08-07T11:32:48.208Z,31.50
2018-08-07T11:35:16.650Z,31.60
2018-08-07T11:37:46.377Z,31.60
2018-08-07T11:40:16.566Z,31.60
2018-08-07T11:42:45.614Z,31.60
2018-08-07T11:45:15.360Z,31.80
2018-08-07T11:47:43.650Z,31.70
2018-08-07T11:50:14.137Z,31.60
2018-08-07T11:52:42.420Z,31.80
2018-08-07T11:55:12.647Z,31.90
2018-08-07T11:57:40.921Z,31.90
2018-08-07T12:00:14.740Z,31.80
2018-08-07T12:02:42.996Z,31.90
2018-08-07T12:05:11.766Z,32.10
2018-08-07T12:07:40.847Z,32.10
2018-08-07T12:10:10.842Z,32.10
2018-08-07T12:12:39.477Z,32.20
2018-08-07T12:15:09.384Z,32.30
2018-08-07T12:17:37.892Z,32.40
2018-08-07T12:20:06.152Z,32.50
2018-08-07T12:22:34.441Z,32.60
2018-08-07T12:25:02.952Z,32.50
2018-08-07T12:27:31.473Z,32.50
2018-08-07T12:29:59.954Z,32.40
2018-08-07T12:32:28.178Z,32.40
2018-08-07T12:34:56.597Z,32.60
2018-08-07T12:37:24.850Z,32.90
2018-08-07T12:39:53.076Z,32.90
2018-08-07T12:42:21.372Z,33.00
2018-08-07T12:44:49.659Z,33.00
2018-08-07T12:47:18.032Z,33.00
2018-08-07T12:49:46.186Z,32.80
2018-08-07T12:52:15.597Z,32.80
2018-08-07T12:54:43.780Z,32.90
2018-08-07T12:57:12.058Z,32.80
2018-08-07T12:59:40.282Z,32.80
2018-08-07T13:02:08.512Z,32.70
2018-08-07T13:04:36.757Z,32.60
2018-08-07T13:07:04.990Z,32.50
2018-08-07T13:09:33.159Z,32.50
2018-08-07T13:12:01.312Z,32.50
2018-08-07T13:14:29.643Z,32.40
2018-08-07T13:16:57.949Z,32.40
2018-08-07T13:19:26.200Z,32.30
2018-08-07T13:21:54.449Z,32.40
2018-08-07T13:24:23.549Z,32.50
2018-08-07T13:26:51.841Z,32.50
2018-08-07T13:29:20.189Z,32.20
2018-08-07T13:31:48.409Z,32.10
2018-08-07T13:34:16.709Z,31.80
2018-08-07T13:36:44.877Z,31.50
2018-08-07T13:39:13.254Z,31.40
2018-08-07T13:41:41.372Z,31.50
2018-08-07T13:44:10.072Z,31.60
2018-08-07T13:46:38.464Z,31.60
2018-08-07T13:49:06.949Z,31.90
2018-08-07T13:51:35.440Z,31.90
2018-08-07T13:54:03.655Z,31.60
2018-08-07T13:56:31.852Z,31.80
2018-08-07T13:59:00.070Z,32.10
2018-08-07T14:01:28.915Z,31.90
2018-08-07T14:03:57.825Z,31.90
2018-08-07T14:08:54.591Z,31.50
2018-08-07T14:11:22.951Z,31.70
2018-08-07T14:13:51.724Z,31.30
2018-08-07T14:16:20.308Z,31.30
2018-08-07T14:18:48.880Z,31.40
2018-08-07T14:21:17.550Z,31.10
2018-08-07T14:23:46.124Z,31.00
2018-08-07T14:26:14.465Z,31.00
2018-08-07T14:28:43.277Z,31.00
2018-08-07T14:31:11.433Z,31.10
2018-08-07T14:33:39.609Z,31.00
2018-08-07T14:36:07.791Z,31.00
2018-08-07T14:41:04.829Z,30.90
2018-08-07T14:46:01.549Z,31.40
2018-08-07T14:48:29.841Z,31.40
2018-08-07T14:50:58.160Z,31.70
2018-08-07T14:53:26.548Z,31.50
2018-08-07T14:58:22.774Z,31.50
2018-08-07T15:00:51.096Z,31.60
2018-08-07T15:03:19.784Z,31.60
2018-08-07T15:05:48.506Z,31.70
2018-08-07T15:08:16.792Z,31.50
2018-08-07T15:10:44.992Z,31.50
2018-08-07T15:13:13.404Z,31.50
2018-08-07T15:15:41.693Z,31.30
2018-08-07T15:20:38.251Z,31.40
2018-08-07T15:23:06.522Z,31.40
2018-08-07T15:25:34.732Z,31.70
2018-08-07T15:28:02.919Z,31.70
2018-08-07T15:30:31.111Z,32.00
2018-08-07T15:32:59.270Z,32.10
2018-08-07T15:35:28.823Z,32.50
2018-08-07T15:37:57.620Z,32.80
2018-08-07T15:40:25.877Z,32.60
2018-08-07T15:42:54.104Z,33.40
2018-08-07T15:45:24.352Z,33.60
2018-08-07T15:47:52.966Z,34.10
2018-08-07T15:50:21.760Z,34.20
2018-08-07T15:52:51.310Z,34.80
2018-08-07T15:55:21.219Z,34.80
2018-08-07T15:57:49.402Z,34.90
2018-08-07T16:00:23.808Z,35.40
2018-08-07T16:02:52.316Z,35.50
2018-08-07T16:05:20.587Z,35.40
2018-08-07T16:07:49.654Z,35.20
2018-08-07T16:10:18.807Z,35.20
2018-08-07T16:12:48.018Z,35.20
2018-08-07T16:15:16.205Z,35.20
2018-08-07T16:17:45.520Z,35.00
2018-08-07T16:20:13.736Z,35.00
2018-08-07T16:22:42.104Z,35.00
2018-08-07T16:25:12.147Z,35.20
2018-08-07T16:27:41.545Z,35.30
2018-08-07T16:30:13.821Z,35.20
2018-08-07T16:32:41.900Z,35.00
2018-08-07T16:35:10.156Z,34.90
2018-08-07T16:37:38.290Z,34.90
2018-08-07T16:40:08.712Z,35.00
2018-08-07T16:42:36.919Z,35.30
2018-08-07T16:45:07.426Z,35.00
2018-08-07T16:47:35.598Z,35.20
2018-08-07T16:50:04.687Z,35.00
2018-08-07T16:52:32.900Z,35.10
2018-08-07T16:55:01.053Z,34.80
2018-08-07T16:57:29.536Z,35.00
2018-08-07T16:59:57.808Z,35.20
2018-08-07T17:02:25.973Z,35.40
2018-08-07T17:04:54.135Z,35.50
2018-08-07T17:07:22.429Z,35.80
2018-08-07T17:09:50.561Z,35.90
2018-08-07T17:12:18.953Z,35.80
2018-08-07T17:14:47.458Z,35.70
2018-08-07T17:17:15.764Z,36.00
2018-08-07T17:19:43.941Z,36.10
2018-08-07T17:22:12.206Z,36.00
2018-08-07T17:24:40.424Z,36.10
2018-08-07T17:27:08.689Z,36.00
2018-08-07T17:29:36.898Z,36.20
2018-08-07T17:37:00.914Z,36.20
2018-08-07T17:39:29.130Z,36.00
2018-08-07T17:41:57.341Z,35.70
2018-08-07T17:44:25.744Z,35.70
2018-08-07T17:46:54.015Z,35.70
2018-08-07T17:49:22.222Z,35.60
2018-08-07T17:51:50.565Z,34.90
2018-08-07T17:54:18.834Z,34.40
2018-08-07T17:56:47.062Z,34.00
2018-08-07T17:59:15.494Z,33.60
2018-08-07T18:01:43.741Z,33.20
2018-08-07T18:06:40.064Z,33.00
2018-08-07T18:09:09.393Z,32.70
2018-08-07T18:11:38.216Z,32.70
2018-08-07T18:14:06.851Z,32.30
2018-08-07T18:16:35.126Z,32.20
2018-08-07T18:21:31.330Z,31.90
2018-08-07T18:23:59.585Z,31.70
2018-08-07T18:26:27.851Z,31.80
2018-08-07T18:28:55.997Z,31.70
2018-08-07T18:31:24.187Z,31.80
2018-08-07T18:33:52.491Z,31.30
2018-08-07T18:36:20.768Z,31.30
2018-08-07T18:38:49.235Z,31.20
2018-08-07T18:41:17.418Z,31.20
2018-08-07T18:43:45.755Z,31.10
2018-08-07T18:46:13.928Z,31.00
2018-08-07T18:48:42.126Z,30.90
2018-08-07T18:51:10.389Z,30.70
2018-08-07T18:53:38.580Z,30.70
2018-08-07T18:56:06.844Z,30.60
2018-08-07T18:58:34.974Z,30.40
2018-08-07T19:03:48.635Z,30.10
2018-08-07T19:06:17.066Z,30.00
2018-08-07T19:09:00.733Z,30.00
2018-08-07T19:11:29.915Z,30.00
2018-08-07T19:14:00.753Z,29.90
2018-08-07T19:16:29.105Z,29.80
2018-08-07T19:19:00.755Z,29.70
2018-08-07T19:21:29.411Z,29.60
2018-08-07T19:23:58.317Z,29.60
2018-08-07T19:26:26.858Z,29.50
2018-08-07T19:28:55.349Z,29.50
2018-08-07T19:31:23.954Z,29.40
2018-08-07T19:33:52.447Z,29.40
2018-08-07T19:36:20.922Z,29.30
2018-08-07T19:41:17.560Z,29.20
2018-08-07T19:43:58.320Z,29.10
2018-08-07T19:46:27.808Z,29.10
2018-08-07T19:48:58.746Z,29.10
2018-08-07T19:51:27.435Z,29.10
2018-08-07T19:53:59.289Z,29.00
2018-08-07T19:56:29.148Z,28.90
2018-08-07T19:58:57.732Z,28.90
2018-08-07T20:01:26.180Z,28.80
2018-08-07T20:03:57.597Z,28.70
2018-08-07T20:06:25.910Z,28.70
2018-08-07T20:08:54.238Z,28.80
2018-08-07T20:11:22.512Z,28.70
2018-08-07T20:13:50.886Z,28.70
2018-08-07T20:16:19.236Z,28.70
2018-08-07T20:18:47.641Z,28.70
2018-08-07T20:21:16.012Z,28.70
2018-08-07T20:23:44.301Z,28.70
2018-08-07T20:28:40.615Z,28.80
2018-08-07T20:31:09.028Z,28.90
2018-08-07T20:36:05.081Z,28.80
2018-08-07T20:38:33.320Z,28.70
2018-08-07T20:41:01.678Z,28.60
2018-08-07T20:43:29.910Z,28.60
2018-08-07T20:45:59.047Z,28.50
2018-08-07T20:48:27.217Z,28.60
2018-08-07T20:50:55.396Z,28.40
2018-08-07T20:53:23.562Z,28.40
2018-08-07T20:55:51.823Z,28.50
2018-08-07T20:58:20.026Z,28.10
2018-08-07T21:00:48.389Z,28.00
2018-08-07T21:03:16.552Z,27.80
2018-08-07T21:05:44.760Z,27.60
2018-08-07T21:08:13.007Z,27.60
2018-08-07T21:10:41.162Z,27.60
2018-08-07T21:13:09.340Z,27.50
2018-08-07T21:15:37.509Z,27.40
2018-08-07T21:18:05.840Z,27.40
2018-08-07T21:20:34.005Z,27.40
2018-08-07T21:23:02.172Z,27.30
2018-08-07T21:25:30.364Z,27.30
2018-08-07T21:27:59.868Z,27.30
2018-08-07T21:30:30.334Z,27.20
2018-08-07T21:32:58.525Z,27.30
2018-08-07T21:35:26.723Z,27.20
2018-08-07T21:37:54.953Z,27.20
2018-08-07T21:40:23.999Z,27.20
2018-08-07T21:42:53.427Z,27.20
2018-08-07T21:45:21.678Z,27.10
2018-08-07T21:47:49.889Z,27.00
2018-08-07T21:50:19.703Z,27.00
2018-08-07T21:52:48.100Z,27.00
2018-08-07T21:55:17.523Z,26.90
2018-08-07T21:57:45.700Z,26.90
2018-08-07T22:00:21.373Z,26.90
2018-08-07T22:02:49.741Z,26.90
2018-08-07T22:05:18.008Z,26.80
2018-08-07T22:07:46.152Z,26.80
2018-08-07T22:10:17.068Z,26.70
2018-08-07T22:12:45.392Z,26.60
2018-08-07T22:15:14.482Z,26.60
2018-08-07T22:17:42.659Z,26.60
2018-08-07T22:20:11.200Z,26.60
2018-08-07T22:22:39.369Z,26.50
2018-08-07T22:25:08.362Z,26.50
2018-08-07T22:27:36.517Z,26.50
2018-08-07T22:30:06.501Z,26.40
2018-08-07T22:32:34.674Z,26.40
2018-08-07T22:35:02.817Z,26.40
2018-08-07T22:37:31.017Z,26.50
2018-08-07T22:39:59.186Z,26.40
2018-08-07T22:42:27.378Z,26.50
2018-08-07T22:44:55.572Z,26.50
2018-08-07T22:47:23.741Z,26.40
2018-08-07T22:49:51.937Z,26.40
2018-08-07T22:52:20.106Z,26.40
2018-08-07T22:54:48.270Z,26.30
2018-08-07T22:57:16.466Z,26.30
2018-08-07T22:59:44.685Z,26.30
2018-08-07T23:02:12.913Z,26.20
2018-08-07T23:04:41.065Z,26.20
2018-08-07T23:07:09.214Z,26.20
2018-08-07T23:09:37.387Z,26.20
2018-08-07T23:12:05.596Z,26.20
2018-08-07T23:14:33.744Z,26.20
2018-08-07T23:17:02.100Z,26.10
2018-08-07T23:19:30.424Z,26.10
2018-08-07T23:21:58.631Z,26.00
2018-08-07T23:24:26.760Z,26.00
2018-08-07T23:26:54.916Z,26.00
2018-08-07T23:31:51.005Z,26.00
2018-08-07T23:34:19.184Z,25.90
2018-08-07T23:36:47.356Z,25.90
2018-08-07T23:39:15.509Z,25.90
2018-08-07T23:41:43.702Z,25.80
2018-08-07T23:44:11.847Z,25.80
2018-08-07T23:46:39.981Z,25.70
2018-08-07T23:49:08.112Z,25.70
2018-08-07T23:51:36.295Z,25.60
2018-08-07T23:54:04.460Z,25.60
2018-08-07T23:56:32.595Z,25.60
2018-08-07T23:59:00.741Z,25.50
